createdAt,value
2019-01-10T00:00:59.740Z,2.27
2019-01-10T00:01:59.764Z,2.35
2019-01-10T00:02:59.788Z,2.24
2019-01-10T00:03:59.810Z,2.49
2019-01-10T00:04:59.841Z,2.28
2019-01-10T00:05:59.858Z,2.36
2019-01-10T00:06:59.883Z,2.53
2019-01-10T00:07:59.904Z,2.43
2019-01-10T00:08:59.928Z,2.48
2019-01-10T00:09:59.951Z,2.42
2019-01-10T00:10:59.975Z,2.48
2019-01-10T00:11:59.998Z,2.46
2019-01-10T00:13:00.022Z,2.31
2019-01-10T00:14:00.044Z,2.30
2019-01-10T00:15:00.242Z,2.27
2019-01-10T00:16:00.093Z,2.30
2019-01-10T00:17:00.114Z,2.30
2019-01-10T00:18:00.137Z,2.31
2019-01-10T00:19:00.162Z,2.27
2019-01-10T00:20:00.296Z,2.34
2019-01-10T00:21:00.208Z,2.27
2019-01-10T00:22:00.233Z,2.36
2019-01-10T00:23:00.255Z,2.30
2019-01-10T00:24:00.278Z,2.35
2019-01-10T00:25:00.303Z,2.39
2019-01-10T00:26:00.325Z,2.42
2019-01-10T00:27:00.347Z,2.38
2019-01-10T00:28:00.372Z,2.35
2019-01-10T00:29:00.394Z,2.28
2019-01-10T00:30:00.419Z,2.30
2019-01-10T00:31:00.441Z,2.43
2019-01-10T00:32:00.462Z,2.48
2019-01-10T00:33:00.487Z,2.53
2019-01-10T00:34:00.512Z,2.46
2019-01-10T00:35:00.558Z,2.46
2019-01-10T00:36:00.557Z,2.39
2019-01-10T00:37:00.581Z,2.38
2019-01-10T00:38:00.604Z,2.28
2019-01-10T00:39:00.628Z,2.34
2019-01-10T00:40:00.652Z,2.35
2019-01-10T00:41:00.674Z,2.34
2019-01-10T00:42:00.697Z,2.41
2019-01-10T00:43:00.722Z,2.42
2019-01-10T00:44:00.743Z,2.35
2019-01-10T00:45:00.766Z,2.36
2019-01-10T00:46:00.834Z,2.45
2019-01-10T00:47:00.814Z,2.49
2019-01-10T00:48:00.837Z,2.46
2019-01-10T00:49:00.859Z,2.43
2019-01-10T00:50:00.884Z,2.46
2019-01-10T00:51:00.907Z,2.43
2019-01-10T00:52:00.931Z,2.43
2019-01-10T00:53:00.954Z,2.41
2019-01-10T00:54:00.981Z,2.49
2019-01-10T00:55:01.008Z,2.45
2019-01-10T00:56:01.024Z,2.35
2019-01-10T00:57:01.047Z,2.42
2019-01-10T00:58:01.071Z,2.36
2019-01-10T00:59:01.093Z,2.34
2019-01-10T01:00:01.118Z,2.30
2019-01-10T01:01:01.142Z,2.28
2019-01-10T01:02:01.165Z,2.25
2019-01-10T01:03:01.188Z,2.35
2019-01-10T01:04:01.211Z,2.41
2019-01-10T01:05:01.234Z,2.35
2019-01-10T01:06:01.259Z,2.31
2019-01-10T01:07:01.284Z,2.28
2019-01-10T01:08:01.305Z,2.27
2019-01-10T01:09:01.329Z,2.23
2019-01-10T01:10:01.355Z,2.31
2019-01-10T01:11:01.376Z,2.36
2019-01-10T01:12:01.399Z,2.34
2019-01-10T01:13:01.423Z,2.39
2019-01-10T01:14:01.447Z,2.35
2019-01-10T01:15:01.469Z,2.39
2019-01-10T01:16:01.493Z,2.34
2019-01-10T01:17:01.517Z,2.35
2019-01-10T01:18:01.542Z,2.34
2019-01-10T01:19:01.564Z,2.34
2019-01-10T01:20:01.587Z,2.34
2019-01-10T01:21:01.610Z,2.48
2019-01-10T01:22:01.635Z,2.39
2019-01-10T01:23:01.658Z,2.42
2019-01-10T01:24:01.680Z,2.43
2019-01-10T01:25:01.705Z,2.46
2019-01-10T01:26:01.727Z,2.46
2019-01-10T01:27:01.752Z,2.48
2019-01-10T01:28:01.775Z,2.48
2019-01-10T01:29:01.798Z,2.54
2019-01-10T01:30:01.835Z,2.60
2019-01-10T01:31:01.845Z,2.64
2019-01-10T01:32:01.868Z,2.69
2019-01-10T01:33:01.891Z,2.79
2019-01-10T01:34:01.917Z,2.90
2019-01-10T01:35:01.939Z,2.87
2019-01-10T01:36:01.961Z,2.92
2019-01-10T01:37:01.985Z,2.81
2019-01-10T01:38:02.118Z,2.63
2019-01-10T01:39:02.031Z,2.60
2019-01-10T01:40:02.055Z,2.57
2019-01-10T01:41:02.077Z,2.66
2019-01-10T01:42:02.102Z,2.56
2019-01-10T01:43:07.255Z,2.54
2019-01-10T01:44:02.149Z,2.49
2019-01-10T01:45:02.211Z,2.56
2019-01-10T01:46:02.196Z,2.56
2019-01-10T01:47:02.218Z,2.54
2019-01-10T01:48:02.241Z,2.64
2019-01-10T01:49:02.264Z,2.57
2019-01-10T01:50:02.288Z,2.56
2019-01-10T01:51:02.313Z,2.60
2019-01-10T01:52:02.335Z,2.59
2019-01-10T01:53:02.359Z,2.63
2019-01-10T01:54:02.382Z,2.60
2019-01-10T01:55:02.506Z,2.74
2019-01-10T01:56:02.428Z,2.77
2019-01-10T01:57:02.453Z,2.78
2019-01-10T01:58:02.476Z,2.78
2019-01-10T01:59:02.504Z,2.71
2019-01-10T02:00:02.522Z,2.75
2019-01-10T02:01:02.545Z,2.84
2019-01-10T02:02:02.574Z,2.81
2019-01-10T02:03:02.596Z,2.82
2019-01-10T02:04:02.616Z,2.74
2019-01-10T02:05:02.640Z,2.82
2019-01-10T02:06:02.664Z,2.71
2019-01-10T02:07:02.690Z,2.74
2019-01-10T02:08:02.709Z,2.72
2019-01-10T02:09:02.733Z,2.71
2019-01-10T02:10:02.767Z,2.84
2019-01-10T02:11:02.782Z,2.71
2019-01-10T02:12:02.803Z,2.69
2019-01-10T02:13:02.828Z,2.66
2019-01-10T02:14:02.852Z,2.69
2019-01-10T02:15:02.876Z,2.64
2019-01-10T02:16:02.897Z,2.66
2019-01-10T02:17:02.920Z,2.63
2019-01-10T02:18:02.945Z,2.64
2019-01-10T02:19:02.968Z,2.66
2019-01-10T02:20:02.992Z,2.59
2019-01-10T02:21:03.014Z,2.53
2019-01-10T02:22:03.039Z,2.48
2019-01-10T02:23:03.064Z,2.56
2019-01-10T02:24:03.083Z,2.49
2019-01-10T02:25:03.114Z,2.54
2019-01-10T02:26:03.140Z,2.61
2019-01-10T02:27:03.157Z,2.54
2019-01-10T02:28:03.179Z,2.46
2019-01-10T02:29:03.205Z,2.53
2019-01-10T02:30:03.233Z,2.49
2019-01-10T02:31:03.251Z,2.79
2019-01-10T02:32:03.276Z,2.79
2019-01-10T02:33:03.299Z,2.92
2019-01-10T02:34:03.322Z,2.90
2019-01-10T02:35:03.345Z,2.72
2019-01-10T02:36:03.368Z,2.81
2019-01-10T02:37:03.395Z,2.92
2019-01-10T02:38:03.417Z,2.84
2019-01-10T02:39:03.438Z,2.82
2019-01-10T02:40:03.463Z,2.63
2019-01-10T02:41:03.489Z,2.56
2019-01-10T02:42:03.509Z,2.42
2019-01-10T02:43:03.534Z,2.39
2019-01-10T02:44:03.556Z,2.38
2019-01-10T02:45:03.579Z,2.30
2019-01-10T02:46:03.604Z,2.43
2019-01-10T02:47:03.627Z,2.49
2019-01-10T02:48:03.649Z,2.43
2019-01-10T02:49:03.683Z,2.38
2019-01-10T02:50:03.697Z,2.31
2019-01-10T02:51:03.721Z,2.34
2019-01-10T02:52:03.743Z,2.39
2019-01-10T02:53:03.766Z,2.39
2019-01-10T02:54:03.789Z,2.36
2019-01-10T02:55:03.813Z,2.31
2019-01-10T02:56:03.850Z,2.25
2019-01-10T02:57:03.859Z,2.18
2019-01-10T02:58:03.882Z,2.31
2019-01-10T02:59:03.906Z,2.25
2019-01-10T03:00:03.930Z,2.25
2019-01-10T03:01:03.952Z,2.28
2019-01-10T03:02:03.976Z,2.27
2019-01-10T03:03:04.000Z,2.34
2019-01-10T03:04:04.023Z,2.24
2019-01-10T03:05:04.047Z,2.31
2019-01-10T03:06:04.068Z,2.27
2019-01-10T03:07:04.093Z,2.20
2019-01-10T03:08:04.116Z,2.12
2019-01-10T03:09:04.218Z,2.21
2019-01-10T03:10:04.163Z,2.16
2019-01-10T03:11:04.184Z,2.10
2019-01-10T03:12:04.208Z,2.21
2019-01-10T03:13:04.232Z,2.24
2019-01-10T03:14:04.254Z,2.27
2019-01-10T03:15:04.278Z,2.30
2019-01-10T03:16:04.301Z,2.27
2019-01-10T03:17:04.323Z,2.30
2019-01-10T03:18:04.363Z,2.31
2019-01-10T03:19:17.109Z,2.31
2019-01-10T03:20:04.392Z,2.25
2019-01-10T03:21:04.419Z,2.31
2019-01-10T03:22:04.563Z,2.28
2019-01-10T03:23:04.464Z,2.25
2019-01-10T03:24:04.486Z,2.23
2019-01-10T03:25:04.524Z,2.30
2019-01-10T03:26:04.533Z,2.27
2019-01-10T03:27:04.558Z,2.25
2019-01-10T03:28:04.581Z,2.28
2019-01-10T03:29:04.606Z,2.35
2019-01-10T03:30:04.628Z,2.21
2019-01-10T03:31:04.664Z,2.28
2019-01-10T03:32:04.691Z,2.24
2019-01-10T03:33:04.731Z,2.23
2019-01-10T03:34:04.735Z,2.25
2019-01-10T03:35:04.744Z,2.25
2019-01-10T03:36:04.878Z,2.28
2019-01-10T03:37:04.792Z,2.28
2019-01-10T03:38:04.962Z,2.21
2019-01-10T03:39:04.840Z,2.27
2019-01-10T03:40:04.864Z,2.31
2019-01-10T03:41:04.884Z,2.28
2019-01-10T03:42:04.909Z,2.23
2019-01-10T03:43:04.937Z,2.28
2019-01-10T03:44:04.954Z,2.27
2019-01-10T03:45:04.977Z,2.34
2019-01-10T03:46:05.005Z,2.25
2019-01-10T03:47:05.023Z,2.27
2019-01-10T03:48:05.069Z,2.27
2019-01-10T03:49:05.072Z,2.34
2019-01-10T03:50:05.099Z,2.28
2019-01-10T03:51:05.120Z,2.35
2019-01-10T03:52:05.142Z,2.31
2019-01-10T03:53:05.164Z,2.36
2019-01-10T03:54:05.188Z,2.36
2019-01-10T03:55:05.212Z,2.41
2019-01-10T03:56:05.235Z,2.31
2019-01-10T03:57:05.258Z,2.35
2019-01-10T03:58:05.283Z,2.46
2019-01-10T03:59:05.307Z,2.49
2019-01-10T04:00:05.337Z,2.43
2019-01-10T04:01:05.354Z,2.35
2019-01-10T04:02:05.376Z,2.39
2019-01-10T04:03:05.399Z,2.46
2019-01-10T04:04:05.423Z,2.46
2019-01-10T04:05:05.450Z,2.45
2019-01-10T04:06:05.472Z,2.42
2019-01-10T04:07:05.495Z,2.46
2019-01-10T04:08:05.516Z,2.39
2019-01-10T04:09:05.544Z,2.42
2019-01-10T04:10:05.572Z,2.36
2019-01-10T04:11:05.588Z,2.35
2019-01-10T04:12:05.615Z,2.31
2019-01-10T04:13:05.641Z,2.39
2019-01-10T04:14:05.660Z,2.38
2019-01-10T04:15:05.683Z,2.49
2019-01-10T04:16:05.710Z,2.46
2019-01-10T04:17:05.729Z,2.41
2019-01-10T04:18:05.756Z,2.45
2019-01-10T04:19:05.779Z,2.39
2019-01-10T04:20:05.801Z,2.43
2019-01-10T04:21:05.824Z,2.35
2019-01-10T04:22:05.846Z,2.45
2019-01-10T04:23:05.872Z,2.43
2019-01-10T04:24:05.897Z,2.42
2019-01-10T04:25:05.923Z,2.31
2019-01-10T04:26:05.943Z,2.35
2019-01-10T04:27:05.965Z,2.34
2019-01-10T04:28:05.991Z,2.38
2019-01-10T04:29:06.011Z,2.35
2019-01-10T04:30:06.043Z,2.36
2019-01-10T04:31:06.063Z,2.39
2019-01-10T04:32:06.087Z,2.35
2019-01-10T04:33:06.108Z,2.34
2019-01-10T04:34:06.134Z,2.38
2019-01-10T04:35:06.156Z,2.41
2019-01-10T04:36:06.176Z,2.38
2019-01-10T04:37:06.210Z,2.35
2019-01-10T04:38:06.226Z,2.41
2019-01-10T04:39:06.249Z,2.36
2019-01-10T04:40:06.272Z,2.30
2019-01-10T04:41:06.295Z,2.31
2019-01-10T04:42:06.317Z,2.35
2019-01-10T04:43:06.361Z,2.42
2019-01-10T04:44:07.193Z,2.41
2019-01-10T04:45:06.398Z,2.34
2019-01-10T04:46:06.411Z,2.45
2019-01-10T04:47:06.436Z,2.41
2019-01-10T04:48:06.459Z,2.35
2019-01-10T04:49:06.481Z,2.35
2019-01-10T04:50:06.504Z,2.38
2019-01-10T04:51:06.528Z,2.34
2019-01-10T04:52:06.552Z,2.45
2019-01-10T04:53:06.575Z,2.41
2019-01-10T04:54:06.599Z,2.41
2019-01-10T04:55:06.622Z,2.45
2019-01-10T04:56:06.643Z,2.35
2019-01-10T04:57:06.670Z,2.36
2019-01-10T04:58:06.695Z,2.42
2019-01-10T04:59:06.716Z,2.38
2019-01-10T05:00:06.738Z,2.35
2019-01-10T05:01:06.762Z,2.31
2019-01-10T05:02:06.786Z,2.42
2019-01-10T05:03:06.808Z,2.30
2019-01-10T05:04:06.835Z,2.41
2019-01-10T05:05:06.854Z,2.41
2019-01-10T05:06:06.886Z,2.42
2019-01-10T05:07:06.902Z,2.43
2019-01-10T05:08:06.926Z,2.43
2019-01-10T05:09:06.947Z,2.48
2019-01-10T05:10:06.969Z,2.46
2019-01-10T05:11:06.994Z,2.45
2019-01-10T05:12:07.018Z,2.43
2019-01-10T05:13:07.054Z,2.43
2019-01-10T05:14:16.180Z,2.46
2019-01-10T05:15:07.087Z,2.43
2019-01-10T05:16:07.112Z,2.46
2019-01-10T05:17:07.134Z,2.46
2019-01-10T05:18:08.179Z,2.48
2019-01-10T05:19:07.182Z,2.41
2019-01-10T05:20:07.203Z,2.45
2019-01-10T05:21:07.228Z,2.42
2019-01-10T05:22:07.251Z,2.46
2019-01-10T05:23:07.285Z,2.49
2019-01-10T05:24:07.298Z,2.45
2019-01-10T05:25:07.323Z,2.42
2019-01-10T05:26:07.347Z,2.42
2019-01-10T05:27:07.371Z,2.48
2019-01-10T05:28:07.393Z,2.39
2019-01-10T05:29:07.414Z,2.49
2019-01-10T05:30:07.439Z,2.39
2019-01-10T05:31:07.461Z,2.41
2019-01-10T05:32:07.487Z,2.41
2019-01-10T05:33:07.509Z,2.36
2019-01-10T05:34:07.534Z,2.45
2019-01-10T05:35:07.557Z,2.31
2019-01-10T05:36:07.578Z,2.34
2019-01-10T05:37:07.603Z,2.36
2019-01-10T05:38:07.626Z,2.36
2019-01-10T05:39:07.649Z,2.34
2019-01-10T05:40:07.674Z,2.35
2019-01-10T05:41:07.694Z,2.38
2019-01-10T05:42:07.720Z,2.31
2019-01-10T05:43:07.742Z,2.28
2019-01-10T05:44:07.767Z,2.30
2019-01-10T05:45:07.790Z,2.34
2019-01-10T05:46:07.813Z,2.35
2019-01-10T05:47:07.838Z,2.41
2019-01-10T05:48:07.862Z,2.48
2019-01-10T05:49:07.887Z,2.48
2019-01-10T05:50:07.910Z,2.48
2019-01-10T05:51:07.931Z,2.46
2019-01-10T05:52:07.955Z,2.52
2019-01-10T05:53:07.977Z,2.45
2019-01-10T05:54:08.003Z,2.46
2019-01-10T05:55:08.025Z,2.53
2019-01-10T05:56:15.210Z,2.45
2019-01-10T05:57:08.071Z,2.42
2019-01-10T05:58:08.095Z,2.41
2019-01-10T05:59:08.120Z,2.45
2019-01-10T06:00:08.142Z,2.41
2019-01-10T06:01:08.165Z,2.46
2019-01-10T06:02:08.188Z,2.46
2019-01-10T06:03:08.213Z,2.46
2019-01-10T06:04:08.235Z,2.45
2019-01-10T06:05:10.511Z,2.43
2019-01-10T06:06:08.282Z,2.46
2019-01-10T06:07:08.359Z,2.49
2019-01-10T06:08:08.329Z,2.48
2019-01-10T06:09:08.353Z,2.42
2019-01-10T06:10:08.375Z,2.45
2019-01-10T06:11:08.399Z,2.48
2019-01-10T06:12:08.421Z,2.45
2019-01-10T06:13:08.446Z,2.42
2019-01-10T06:14:08.468Z,2.43
2019-01-10T06:15:08.492Z,2.45
2019-01-10T06:16:08.513Z,2.43
2019-01-10T06:17:08.538Z,2.41
2019-01-10T06:18:08.563Z,2.46
2019-01-10T06:19:08.584Z,2.41
2019-01-10T06:20:08.608Z,2.46
2019-01-10T06:21:08.632Z,2.39
2019-01-10T06:22:08.656Z,2.42
2019-01-10T06:23:08.678Z,2.46
2019-01-10T06:24:08.702Z,2.36
2019-01-10T06:25:08.730Z,2.34
2019-01-10T06:26:08.748Z,2.36
2019-01-10T06:27:08.772Z,2.35
2019-01-10T06:28:08.794Z,2.34
2019-01-10T06:29:08.819Z,2.41
2019-01-10T06:30:08.841Z,2.43
2019-01-10T06:31:08.865Z,2.34
2019-01-10T06:32:08.888Z,2.34
2019-01-10T06:33:08.911Z,2.41
2019-01-10T06:34:08.935Z,2.39
2019-01-10T06:35:08.973Z,2.35
2019-01-10T06:36:08.981Z,2.48
2019-01-10T06:37:09.003Z,2.48
2019-01-10T06:38:09.028Z,2.46
2019-01-10T06:39:09.052Z,2.42
2019-01-10T06:40:09.074Z,2.41
2019-01-10T06:41:09.098Z,2.42
2019-01-10T06:42:09.127Z,2.45
2019-01-10T06:43:09.144Z,2.60
2019-01-10T06:44:09.167Z,2.67
2019-01-10T06:45:09.191Z,2.87
2019-01-10T06:46:09.215Z,2.96
2019-01-10T06:47:09.239Z,2.89
2019-01-10T06:48:09.261Z,2.82
2019-01-10T06:49:09.285Z,2.87
2019-01-10T06:50:09.309Z,3.06
2019-01-10T06:51:09.331Z,2.97
2019-01-10T06:52:09.358Z,3.20
2019-01-10T06:53:09.380Z,3.24
2019-01-10T06:54:09.403Z,3.26
2019-01-10T06:55:09.427Z,3.18
2019-01-10T06:56:09.450Z,3.26
2019-01-10T06:57:09.473Z,3.29
2019-01-10T06:58:09.499Z,3.18
2019-01-10T06:59:09.522Z,3.20
2019-01-10T07:00:09.543Z,3.29
2019-01-10T07:01:09.568Z,3.31
2019-01-10T07:02:09.591Z,3.28
2019-01-10T07:03:09.614Z,3.20
2019-01-10T07:04:09.638Z,3.15
2019-01-10T07:05:11.156Z,3.03
2019-01-10T07:06:09.685Z,3.14
2019-01-10T07:07:09.708Z,3.17
2019-01-10T07:08:09.734Z,3.31
2019-01-10T07:09:09.757Z,3.40
2019-01-10T07:10:09.779Z,3.47
2019-01-10T07:11:09.804Z,3.51
2019-01-10T07:12:09.826Z,3.61
2019-01-10T07:13:09.849Z,3.52
2019-01-10T07:14:09.876Z,3.70
2019-01-10T07:15:09.898Z,3.80
2019-01-10T07:16:09.921Z,3.65
2019-01-10T07:17:09.946Z,3.68
2019-01-10T07:18:09.967Z,3.75
2019-01-10T07:19:10.089Z,3.68
2019-01-10T07:20:10.016Z,3.42
2019-01-10T07:21:10.037Z,3.28
2019-01-10T07:22:10.063Z,3.11
2019-01-10T07:23:10.086Z,3.00
2019-01-10T07:24:10.109Z,2.95
2019-01-10T07:25:10.137Z,2.85
2019-01-10T07:26:10.156Z,2.89
2019-01-10T07:27:10.180Z,2.78
2019-01-10T07:28:10.202Z,2.75
2019-01-10T07:29:10.231Z,2.81
2019-01-10T07:30:10.250Z,2.89
2019-01-10T07:31:10.274Z,2.96
2019-01-10T07:32:10.298Z,2.95
2019-01-10T07:33:10.322Z,3.00
2019-01-10T07:34:10.348Z,2.99
2019-01-10T07:35:10.370Z,2.92
2019-01-10T07:36:10.393Z,2.95
2019-01-10T07:37:12.969Z,2.90
2019-01-10T07:38:10.439Z,2.92
2019-01-10T07:39:10.463Z,2.82
2019-01-10T07:40:10.485Z,2.96
2019-01-10T07:41:10.510Z,2.97
2019-01-10T07:42:10.533Z,2.97
2019-01-10T07:43:10.558Z,3.00
2019-01-10T07:44:10.580Z,3.11
2019-01-10T07:45:10.604Z,2.99
2019-01-10T07:46:10.631Z,2.93
2019-01-10T07:47:10.651Z,2.97
2019-01-10T07:48:10.675Z,2.82
2019-01-10T07:49:10.698Z,2.79
2019-01-10T07:50:10.765Z,2.79
2019-01-10T07:51:10.746Z,2.81
2019-01-10T07:52:10.770Z,2.79
2019-01-10T07:53:10.794Z,2.85
2019-01-10T07:54:10.818Z,3.06
2019-01-10T07:55:10.840Z,3.03
2019-01-10T07:56:10.865Z,2.97
2019-01-10T07:57:10.888Z,3.03
2019-01-10T07:58:10.912Z,3.00
2019-01-10T07:59:10.937Z,2.99
2019-01-10T08:00:10.958Z,2.96
2019-01-10T08:01:10.982Z,2.90
2019-01-10T08:02:11.008Z,2.84
2019-01-10T08:03:11.031Z,2.71
2019-01-10T08:04:11.053Z,2.79
2019-01-10T08:05:11.076Z,2.82
2019-01-10T08:06:11.102Z,2.81
2019-01-10T08:07:11.126Z,2.92
2019-01-10T08:08:11.148Z,2.84
2019-01-10T08:09:11.171Z,3.05
2019-01-10T08:10:11.195Z,2.97
2019-01-10T08:11:11.222Z,2.95
2019-01-10T08:12:11.243Z,2.87
2019-01-10T08:13:11.266Z,2.92
2019-01-10T08:14:11.291Z,2.89
2019-01-10T08:15:11.970Z,2.90
2019-01-10T08:16:11.387Z,2.79
2019-01-10T08:17:16.183Z,2.79
2019-01-10T08:18:11.387Z,2.81
2019-01-10T08:19:11.410Z,2.77
2019-01-10T08:20:11.536Z,2.78
2019-01-10T08:21:11.455Z,2.75
2019-01-10T08:22:11.480Z,2.81
2019-01-10T08:23:11.504Z,2.82
2019-01-10T08:24:11.526Z,2.84
2019-01-10T08:25:11.552Z,2.84
2019-01-10T08:26:11.576Z,2.81
2019-01-10T08:27:11.669Z,2.84
2019-01-10T08:28:11.621Z,2.71
2019-01-10T08:29:11.646Z,2.77
2019-01-10T08:30:11.670Z,2.84
2019-01-10T08:31:11.695Z,2.81
2019-01-10T08:32:11.716Z,2.79
2019-01-10T08:33:11.741Z,2.82
2019-01-10T08:34:11.764Z,2.79
2019-01-10T08:35:11.789Z,2.81
2019-01-10T08:36:11.813Z,2.79
2019-01-10T08:37:12.262Z,2.77
2019-01-10T08:38:11.858Z,2.78
2019-01-10T08:39:11.884Z,2.77
2019-01-10T08:40:11.904Z,2.78
2019-01-10T08:41:13.885Z,2.81
2019-01-10T08:42:11.953Z,2.90
2019-01-10T08:43:11.976Z,2.79
2019-01-10T08:44:12.000Z,2.90
2019-01-10T08:45:21.104Z,2.87
2019-01-10T08:46:12.046Z,2.85
2019-01-10T08:47:12.070Z,2.93
2019-01-10T08:48:12.094Z,2.89
2019-01-10T08:49:12.117Z,2.89
2019-01-10T08:50:12.143Z,2.96
2019-01-10T08:51:12.168Z,2.97
2019-01-10T08:52:12.187Z,3.06
2019-01-10T08:53:12.213Z,3.03
2019-01-10T08:54:12.235Z,3.05
2019-01-10T08:55:12.260Z,2.96
2019-01-10T08:56:12.286Z,2.96
2019-01-10T08:57:12.306Z,2.95
2019-01-10T08:58:12.329Z,2.99
2019-01-10T08:59:12.353Z,3.00
2019-01-10T09:00:12.375Z,2.95
2019-01-10T09:01:12.400Z,2.92
2019-01-10T09:02:12.424Z,2.89
2019-01-10T09:03:12.448Z,2.89
2019-01-10T09:04:12.563Z,2.90
2019-01-10T09:05:12.493Z,2.93
2019-01-10T09:06:12.529Z,2.97
2019-01-10T09:07:12.542Z,2.95
2019-01-10T09:08:12.565Z,2.97
2019-01-10T09:09:12.588Z,2.95
2019-01-10T09:10:12.612Z,2.99
2019-01-10T09:11:12.636Z,3.05
2019-01-10T09:12:12.660Z,3.02
2019-01-10T09:13:12.686Z,3.20
2019-01-10T09:14:12.709Z,3.13
2019-01-10T09:15:12.731Z,3.08
2019-01-10T09:16:12.755Z,3.02
2019-01-10T09:17:12.776Z,3.10
2019-01-10T09:18:12.802Z,3.17
2019-01-10T09:19:12.827Z,3.02
2019-01-10T09:20:12.848Z,3.05
2019-01-10T09:21:12.873Z,3.02
2019-01-10T09:22:12.897Z,3.17
2019-01-10T09:23:12.921Z,3.17
2019-01-10T09:24:12.944Z,3.26
2019-01-10T09:25:12.967Z,3.33
2019-01-10T09:26:12.992Z,3.33
2019-01-10T09:27:13.016Z,3.51
2019-01-10T09:28:13.042Z,3.35
2019-01-10T09:29:13.064Z,3.33
2019-01-10T09:30:13.088Z,3.36
2019-01-10T09:31:13.111Z,3.39
2019-01-10T09:32:13.134Z,3.21
2019-01-10T09:33:13.159Z,3.21
2019-01-10T09:34:13.185Z,3.26
2019-01-10T09:35:13.215Z,3.17
2019-01-10T09:36:13.231Z,3.32
2019-01-10T09:37:13.255Z,3.29
2019-01-10T09:38:13.281Z,3.24
2019-01-10T09:39:13.301Z,3.18
2019-01-10T09:40:13.328Z,3.21
2019-01-10T09:41:13.352Z,3.08
2019-01-10T09:42:13.375Z,3.02
2019-01-10T09:43:13.398Z,3.11
2019-01-10T09:44:13.422Z,3.14
2019-01-10T09:45:13.448Z,3.06
2019-01-10T09:46:13.472Z,2.99
2019-01-10T09:47:13.495Z,2.95
2019-01-10T09:48:13.528Z,3.03
2019-01-10T09:49:14.999Z,3.03
2019-01-10T09:50:13.565Z,3.13
2019-01-10T09:51:13.591Z,3.02
2019-01-10T09:52:13.614Z,2.99
2019-01-10T09:53:13.638Z,2.95
2019-01-10T09:54:13.661Z,2.95
2019-01-10T09:55:13.685Z,2.93
2019-01-10T09:56:13.708Z,2.97
2019-01-10T09:57:13.733Z,2.85
2019-01-10T09:58:13.757Z,2.87
2019-01-10T09:59:13.779Z,2.82
2019-01-10T10:00:13.803Z,2.89
2019-01-10T10:01:13.827Z,2.93
2019-01-10T10:02:13.853Z,2.90
2019-01-10T10:03:13.876Z,2.93
2019-01-10T10:04:13.898Z,2.99
2019-01-10T10:05:13.924Z,2.97
2019-01-10T10:06:13.946Z,3.02
2019-01-10T10:07:13.972Z,2.96
2019-01-10T10:08:14.035Z,3.03
2019-01-10T10:09:14.017Z,3.05
2019-01-10T10:10:14.042Z,3.02
2019-01-10T10:11:14.117Z,2.95
2019-01-10T10:12:14.089Z,2.95
2019-01-10T10:13:14.113Z,2.99
2019-01-10T10:14:14.136Z,3.05
2019-01-10T10:15:14.161Z,3.00
2019-01-10T10:16:14.191Z,3.13
2019-01-10T10:17:14.208Z,3.17
2019-01-10T10:18:14.232Z,3.26
2019-01-10T10:19:14.256Z,3.33
2019-01-10T10:20:14.821Z,3.24
2019-01-10T10:21:14.305Z,3.23
2019-01-10T10:22:14.332Z,3.26
2019-01-10T10:23:14.353Z,3.35
2019-01-10T10:24:14.376Z,3.14
2019-01-10T10:25:14.400Z,3.14
2019-01-10T10:26:14.493Z,3.02
2019-01-10T10:27:14.453Z,3.11
2019-01-10T10:28:14.473Z,3.06
2019-01-10T10:29:14.495Z,3.05
2019-01-10T10:30:14.519Z,3.11
2019-01-10T10:31:14.546Z,3.05
2019-01-10T10:32:14.567Z,3.03
2019-01-10T10:33:14.593Z,3.11
2019-01-10T10:34:14.617Z,3.18
2019-01-10T10:35:14.640Z,3.14
2019-01-10T10:36:14.663Z,3.17
2019-01-10T10:37:14.687Z,3.03
2019-01-10T10:38:14.711Z,3.14
2019-01-10T10:39:14.737Z,3.15
2019-01-10T10:40:14.759Z,3.08
2019-01-10T10:41:14.782Z,3.08
2019-01-10T10:42:14.807Z,3.05
2019-01-10T10:43:14.832Z,3.02
2019-01-10T10:44:14.855Z,2.93
2019-01-10T10:45:14.881Z,2.99
2019-01-10T10:46:14.904Z,3.18
2019-01-10T10:47:14.928Z,3.31
2019-01-10T10:48:14.951Z,3.29
2019-01-10T10:49:14.976Z,3.47
2019-01-10T10:50:15.000Z,3.47
2019-01-10T10:51:15.025Z,3.51
2019-01-10T10:52:15.047Z,3.54
2019-01-10T10:53:15.072Z,3.45
2019-01-10T10:54:15.098Z,3.48
2019-01-10T10:55:15.121Z,3.45
2019-01-10T10:56:15.144Z,3.48
2019-01-10T10:57:15.168Z,3.36
2019-01-10T10:58:15.294Z,3.43
2019-01-10T10:59:15.216Z,3.40
2019-01-10T11:00:15.239Z,3.35
2019-01-10T11:01:15.264Z,3.45
2019-01-10T11:02:15.288Z,3.43
2019-01-10T11:03:15.313Z,3.48
2019-01-10T11:04:15.335Z,3.66
2019-01-10T11:05:15.360Z,3.75
2019-01-10T11:06:15.384Z,3.55
2019-01-10T11:07:15.408Z,3.51
2019-01-10T11:08:15.435Z,3.52
2019-01-10T11:09:15.456Z,3.43
2019-01-10T11:10:15.481Z,3.48
2019-01-10T11:11:15.505Z,3.42
2019-01-10T11:12:15.529Z,3.43
2019-01-10T11:13:15.553Z,3.55
2019-01-10T11:14:15.577Z,3.66
2019-01-10T11:15:15.602Z,3.60
2019-01-10T11:16:15.626Z,3.66
2019-01-10T11:17:15.649Z,3.70
2019-01-10T11:18:15.674Z,3.65
2019-01-10T11:19:15.700Z,3.62
2019-01-10T11:20:15.724Z,3.76
2019-01-10T11:21:15.748Z,3.79
2019-01-10T11:22:15.771Z,3.68
2019-01-10T11:23:15.796Z,3.83
2019-01-10T11:24:15.819Z,3.79
2019-01-10T11:25:15.844Z,3.79
2019-01-10T11:26:15.868Z,3.87
2019-01-10T11:27:15.894Z,3.75
2019-01-10T11:28:15.917Z,3.55
2019-01-10T11:29:15.942Z,3.69
2019-01-10T11:30:15.966Z,3.66
2019-01-10T11:31:15.990Z,3.75
2019-01-10T11:32:16.015Z,3.88
2019-01-10T11:33:16.039Z,3.73
2019-01-10T11:34:16.064Z,3.84
2019-01-10T11:35:16.088Z,3.97
2019-01-10T11:36:16.112Z,4.02
2019-01-10T11:37:16.137Z,3.98
2019-01-10T11:38:16.162Z,4.02
2019-01-10T11:39:16.187Z,3.98
2019-01-10T11:40:16.211Z,3.98
2019-01-10T11:41:16.235Z,4.14
2019-01-10T11:42:16.259Z,4.00
2019-01-10T11:43:16.285Z,4.06
2019-01-10T11:44:16.308Z,4.15
2019-01-10T11:45:16.332Z,4.06
2019-01-10T11:46:19.695Z,4.11
2019-01-10T11:47:16.382Z,4.14
2019-01-10T11:48:16.407Z,4.00
2019-01-10T11:49:16.431Z,3.86
2019-01-10T11:50:16.495Z,3.84
2019-01-10T11:51:16.481Z,4.05
2019-01-10T11:52:16.505Z,4.11
2019-01-10T11:53:16.530Z,4.02
2019-01-10T11:54:16.555Z,4.16
2019-01-10T11:55:16.580Z,4.26
2019-01-10T11:56:16.604Z,4.41
2019-01-10T11:57:16.629Z,4.36
2019-01-10T11:58:16.654Z,4.42
2019-01-10T11:59:16.677Z,4.18
2019-01-10T12:00:16.795Z,4.14
2019-01-10T12:01:16.725Z,4.08
2019-01-10T12:02:16.750Z,3.78
2019-01-10T12:03:16.774Z,3.68
2019-01-10T12:04:16.798Z,3.70
2019-01-10T12:05:16.823Z,3.78
2019-01-10T12:06:16.847Z,3.78
2019-01-10T12:07:16.871Z,3.80
2019-01-10T12:08:16.894Z,3.80
2019-01-10T12:09:16.919Z,3.86
2019-01-10T12:10:16.950Z,3.84
2019-01-10T12:11:16.970Z,3.83
2019-01-10T12:12:16.993Z,3.84
2019-01-10T12:13:17.017Z,3.73
2019-01-10T12:14:17.043Z,3.57
2019-01-10T12:15:17.067Z,3.61
2019-01-10T12:16:17.089Z,3.50
2019-01-10T12:17:17.117Z,3.55
2019-01-10T12:18:17.140Z,3.62
2019-01-10T12:19:17.163Z,3.80
2019-01-10T12:20:17.186Z,3.87
2019-01-10T12:21:17.211Z,3.78
2019-01-10T12:22:17.235Z,3.79
2019-01-10T12:23:17.260Z,3.79
2019-01-10T12:24:17.284Z,3.75
2019-01-10T12:25:17.308Z,3.86
2019-01-10T12:26:17.333Z,3.73
2019-01-10T12:27:17.358Z,3.73
2019-01-10T12:28:17.381Z,3.60
2019-01-10T12:29:17.406Z,3.55
2019-01-10T12:30:17.430Z,3.54
2019-01-10T12:31:17.544Z,3.60
2019-01-10T12:32:17.480Z,3.51
2019-01-10T12:33:17.591Z,3.54
2019-01-10T12:34:17.530Z,3.54
2019-01-10T12:35:17.556Z,3.51
2019-01-10T12:36:17.578Z,3.69
2019-01-10T12:37:17.600Z,3.73
2019-01-10T12:38:17.625Z,3.75
2019-01-10T12:39:17.650Z,3.72
2019-01-10T12:40:17.672Z,3.73
2019-01-10T12:41:17.699Z,3.69
2019-01-10T12:42:17.723Z,3.51
2019-01-10T12:43:17.774Z,3.73
2019-01-10T12:44:17.771Z,3.84
2019-01-10T12:45:17.795Z,3.83
2019-01-10T12:46:17.820Z,3.90
2019-01-10T12:47:17.845Z,3.76
2019-01-10T12:48:17.868Z,3.80
2019-01-10T12:49:17.893Z,3.75
2019-01-10T12:50:17.917Z,3.83
2019-01-10T12:51:17.942Z,3.69
2019-01-10T12:52:17.966Z,3.66
2019-01-10T12:53:17.990Z,3.65
2019-01-10T12:54:18.015Z,3.69
2019-01-10T12:55:18.043Z,3.66
2019-01-10T12:56:18.608Z,3.65
2019-01-10T12:57:18.088Z,3.65
2019-01-10T12:58:18.113Z,3.52
2019-01-10T12:59:18.138Z,3.66
2019-01-10T13:00:18.162Z,3.72
2019-01-10T13:01:18.185Z,3.62
2019-01-10T13:02:18.210Z,3.65
2019-01-10T13:03:18.234Z,3.65
2019-01-10T13:04:18.259Z,3.73
2019-01-10T13:05:18.282Z,3.72
2019-01-10T13:06:18.307Z,3.65
2019-01-10T13:07:18.332Z,3.61
2019-01-10T13:08:18.365Z,3.54
2019-01-10T13:09:18.384Z,3.60
2019-01-10T13:10:18.405Z,3.55
2019-01-10T13:11:18.429Z,3.55
2019-01-10T13:12:18.453Z,3.57
2019-01-10T13:13:18.478Z,3.54
2019-01-10T13:14:18.503Z,3.52
2019-01-10T13:15:18.526Z,3.45
2019-01-10T13:16:18.553Z,3.54
2019-01-10T13:17:18.576Z,3.69
2019-01-10T13:18:18.606Z,3.66
2019-01-10T13:19:18.627Z,3.75